sensor_id;sensor_type;location;lat;lon;timestamp;P1;durP1;ratioP1;P2;durP2;ratioP2
80776;SDS011;70169;51.262;6.336;2023-07-13T00:01:41;3.40;;;1.33;;
80776;SDS011;70169;51.262;6.336;2023-07-13T00:03:57;2.17;;;1.05;;
80776;SDS011;70169;51.262;6.336;2023-07-13T00:06:13;3.35;;;1.38;;
80776;SDS011;70169;51.262;6.336;2023-07-13T00:08:30;4.38;;;1.83;;
80776;SDS011;70169;51.262;6.336;2023-07-13T00:10:47;3.25;;;1.30;;
80776;SDS011;70169;51.262;6.336;2023-07-13T00:13:03;3.55;;;1.27;;
80776;SDS011;70169;51.262;6.336;2023-07-13T00:15:21;2.63;;;1.20;;
80776;SDS011;70169;51.262;6.336;2023-07-13T00:17:39;3.97;;;1.50;;
80776;SDS011;70169;51.262;6.336;2023-07-13T00:19:55;2.90;;;1.40;;
80776;SDS011;70169;51.262;6.336;2023-07-13T00:22:11;2.50;;;1.50;;
80776;SDS011;70169;51.262;6.336;2023-07-13T00:24:27;3.08;;;1.40;;
80776;SDS011;70169;51.262;6.336;2023-07-13T00:26:42;3.33;;;1.25;;
80776;SDS011;70169;51.262;6.336;2023-07-13T00:29:00;4.57;;;1.52;;
80776;SDS011;70169;51.262;6.336;2023-07-13T00:31:16;3.87;;;1.37;;
80776;SDS011;70169;51.262;6.336;2023-07-13T00:33:31;4.32;;;1.50;;
80776;SDS011;70169;51.262;6.336;2023-07-13T00:35:48;3.35;;;1.33;;
80776;SDS011;70169;51.262;6.336;2023-07-13T00:38:04;3.33;;;1.23;;
80776;SDS011;70169;51.262;6.336;2023-07-13T00:40:19;3.50;;;1.20;;
80776;SDS011;70169;51.262;6.336;2023-07-13T00:42:35;2.40;;;1.03;;
80776;SDS011;70169;51.262;6.336;2023-07-13T00:45:04;3.30;;;1.27;;
80776;SDS011;70169;51.262;6.336;2023-07-13T00:47:19;3.28;;;1.42;;
80776;SDS011;70169;51.262;6.336;2023-07-13T00:49:35;3.80;;;1.00;;
80776;SDS011;70169;51.262;6.336;2023-07-13T00:51:53;3.25;;;1.35;;
80776;SDS011;70169;51.262;6.336;2023-07-13T00:54:11;3.15;;;1.20;;
80776;SDS011;70169;51.262;6.336;2023-07-13T00:56:30;3.75;;;1.23;;
80776;SDS011;70169;51.262;6.336;2023-07-13T00:58:47;2.47;;;1.13;;
80776;SDS011;70169;51.262;6.336;2023-07-13T01:01:04;4.35;;;1.52;;
80776;SDS011;70169;51.262;6.336;2023-07-13T01:03:19;2.67;;;1.30;;
80776;SDS011;70169;51.262;6.336;2023-07-13T01:05:35;2.75;;;1.13;;
80776;SDS011;70169;51.262;6.336;2023-07-13T01:07:52;2.35;;;1.10;;
80776;SDS011;70169;51.262;6.336;2023-07-13T01:10:08;5.47;;;1.25;;
80776;SDS011;70169;51.262;6.336;2023-07-13T01:12:23;2.55;;;1.15;;
80776;SDS011;70169;51.262;6.336;2023-07-13T01:14:39;2.23;;;1.10;;
80776;SDS011;70169;51.262;6.336;2023-07-13T01:16:55;3.63;;;1.20;;
80776;SDS011;70169;51.262;6.336;2023-07-13T01:21:49;2.95;;;1.10;;
80776;SDS011;70169;51.262;6.336;2023-07-13T01:24:05;1.90;;;1.00;;
80776;SDS011;70169;51.262;6.336;2023-07-13T01:26:21;3.30;;;1.30;;
80776;SDS011;70169;51.262;6.336;2023-07-13T01:28:37;3.63;;;1.30;;
80776;SDS011;70169;51.262;6.336;2023-07-13T01:30:53;3.88;;;1.45;;
80776;SDS011;70169;51.262;6.336;2023-07-13T01:33:15;4.47;;;1.20;;
80776;SDS011;70169;51.262;6.336;2023-07-13T01:35:31;5.85;;;1.33;;
80776;SDS011;70169;51.262;6.336;2023-07-13T01:37:46;2.70;;;1.20;;
80776;SDS011;70169;51.262;6.336;2023-07-13T01:40:03;3.28;;;1.55;;
80776;SDS011;70169;51.262;6.336;2023-07-13T01:42:19;3.97;;;1.27;;
80776;SDS011;70169;51.262;6.336;2023-07-13T01:44:34;5.07;;;1.60;;
80776;SDS011;70169;51.262;6.336;2023-07-13T01:46:50;3.10;;;1.37;;
80776;SDS011;70169;51.262;6.336;2023-07-13T01:49:05;4.72;;;1.50;;
80776;SDS011;70169;51.262;6.336;2023-07-13T01:51:20;3.73;;;1.20;;
80776;SDS011;70169;51.262;6.336;2023-07-13T01:53:36;3.27;;;1.17;;
80776;SDS011;70169;51.262;6.336;2023-07-13T01:55:51;3.10;;;1.02;;
80776;SDS011;70169;51.262;6.336;2023-07-13T01:58:07;3.40;;;1.40;;
80776;SDS011;70169;51.262;6.336;2023-07-13T02:00:22;2.70;;;1.23;;
80776;SDS011;70169;51.262;6.336;2023-07-13T02:02:38;4.30;;;1.30;;
80776;SDS011;70169;51.262;6.336;2023-07-13T02:04:53;2.92;;;1.15;;
80776;SDS011;70169;51.262;6.336;2023-07-13T02:07:09;3.23;;;1.40;;
80776;SDS011;70169;51.262;6.336;2023-07-13T02:09:24;3.08;;;1.15;;
80776;SDS011;70169;51.262;6.336;2023-07-13T02:11:39;3.90;;;1.45;;
80776;SDS011;70169;51.262;6.336;2023-07-13T02:13:55;2.33;;;1.10;;
80776;SDS011;70169;51.262;6.336;2023-07-13T02:16:10;2.80;;;1.10;;
80776;SDS011;70169;51.262;6.336;2023-07-13T02:18:26;3.00;;;1.40;;
80776;SDS011;70169;51.262;6.336;2023-07-13T02:20:41;3.97;;;1.83;;
80776;SDS011;70169;51.262;6.336;2023-07-13T02:22:57;3.73;;;1.77;;
80776;SDS011;70169;51.262;6.336;2023-07-13T02:25:12;6.07;;;2.00;;
80776;SDS011;70169;51.262;6.336;2023-07-13T02:27:27;4.27;;;1.70;;
80776;SDS011;70169;51.262;6.336;2023-07-13T02:29:43;3.53;;;1.43;;
80776;SDS011;70169;51.262;6.336;2023-07-13T02:31:58;5.83;;;1.50;;
80776;SDS011;70169;51.262;6.336;2023-07-13T02:34:13;2.97;;;1.27;;
80776;SDS011;70169;51.262;6.336;2023-07-13T02:36:29;3.23;;;1.37;;
80776;SDS011;70169;51.262;6.336;2023-07-13T02:38:45;4.47;;;1.50;;
80776;SDS011;70169;51.262;6.336;2023-07-13T02:41:00;3.70;;;1.40;;
80776;SDS011;70169;51.262;6.336;2023-07-13T02:43:16;2.50;;;1.10;;
80776;SDS011;70169;51.262;6.336;2023-07-13T02:45:31;3.67;;;1.60;;
80776;SDS011;70169;51.262;6.336;2023-07-13T02:47:47;3.13;;;1.33;;
80776;SDS011;70169;51.262;6.336;2023-07-13T02:50:02;3.47;;;1.50;;
80776;SDS011;70169;51.262;6.336;2023-07-13T02:52:18;4.38;;;1.23;;
80776;SDS011;70169;51.262;6.336;2023-07-13T02:54:33;4.18;;;1.27;;
80776;SDS011;70169;51.262;6.336;2023-07-13T02:56:49;5.07;;;1.60;;
80776;SDS011;70169;51.262;6.336;2023-07-13T02:59:04;3.30;;;1.50;;
80776;SDS011;70169;51.262;6.336;2023-07-13T03:01:20;4.45;;;1.27;;
80776;SDS011;70169;51.262;6.336;2023-07-13T03:05:57;3.28;;;1.35;;
80776;SDS011;70169;51.262;6.336;2023-07-13T03:08:14;3.38;;;1.60;;
80776;SDS011;70169;51.262;6.336;2023-07-13T03:10:29;5.63;;;1.90;;
80776;SDS011;70169;51.262;6.336;2023-07-13T03:12:45;3.50;;;1.40;;
80776;SDS011;70169;51.262;6.336;2023-07-13T03:15:00;5.47;;;1.45;;
80776;SDS011;70169;51.262;6.336;2023-07-13T03:17:16;4.93;;;1.80;;
80776;SDS011;70169;51.262;6.336;2023-07-13T03:19:32;5.03;;;1.53;;
80776;SDS011;70169;51.262;6.336;2023-07-13T03:21:47;4.80;;;1.60;;
80776;SDS011;70169;51.262;6.336;2023-07-13T03:24:02;3.53;;;1.33;;
80776;SDS011;70169;51.262;6.336;2023-07-13T03:26:18;3.85;;;1.42;;
80776;SDS011;70169;51.262;6.336;2023-07-13T03:28:35;4.38;;;1.50;;
80776;SDS011;70169;51.262;6.336;2023-07-13T03:30:58;4.45;;;1.50;;
80776;SDS011;70169;51.262;6.336;2023-07-13T03:33:16;4.22;;;1.55;;
80776;SDS011;70169;51.262;6.336;2023-07-13T03:35:32;4.70;;;1.47;;
80776;SDS011;70169;51.262;6.336;2023-07-13T03:37:48;4.43;;;1.60;;
80776;SDS011;70169;51.262;6.336;2023-07-13T03:40:03;4.38;;;1.48;;
80776;SDS011;70169;51.262;6.336;2023-07-13T03:42:19;5.13;;;1.50;;
80776;SDS011;70169;51.262;6.336;2023-07-13T03:44:34;5.03;;;1.30;;
80776;SDS011;70169;51.262;6.336;2023-07-13T03:46:50;4.00;;;1.38;;
80776;SDS011;70169;51.262;6.336;2023-07-13T03:49:05;4.47;;;2.30;;
80776;SDS011;70169;51.262;6.336;2023-07-13T03:51:21;5.75;;;1.85;;
80776;SDS011;70169;51.262;6.336;2023-07-13T03:53:43;4.72;;;2.00;;
80776;SDS011;70169;51.262;6.336;2023-07-13T03:55:59;2.80;;;1.20;;
80776;SDS011;70169;51.262;6.336;2023-07-13T03:58:22;3.87;;;1.43;;
80776;SDS011;70169;51.262;6.336;2023-07-13T04:00:46;3.63;;;1.30;;
80776;SDS011;70169;51.262;6.336;2023-07-13T04:03:01;3.80;;;1.67;;
80776;SDS011;70169;51.262;6.336;2023-07-13T04:05:16;4.13;;;1.57;;
80776;SDS011;70169;51.262;6.336;2023-07-13T04:07:32;3.22;;;1.50;;
80776;SDS011;70169;51.262;6.336;2023-07-13T04:09:47;4.13;;;1.63;;
80776;SDS011;70169;51.262;6.336;2023-07-13T04:12:03;3.90;;;1.80;;
80776;SDS011;70169;51.262;6.336;2023-07-13T04:14:19;4.13;;;1.70;;
80776;SDS011;70169;51.262;6.336;2023-07-13T04:16:34;4.77;;;1.70;;
80776;SDS011;70169;51.262;6.336;2023-07-13T04:18:50;3.60;;;1.35;;
80776;SDS011;70169;51.262;6.336;2023-07-13T04:21:09;4.32;;;1.70;;
80776;SDS011;70169;51.262;6.336;2023-07-13T04:23:25;6.32;;;1.90;;
80776;SDS011;70169;51.262;6.336;2023-07-13T04:25:43;3.13;;;1.20;;
80776;SDS011;70169;51.262;6.336;2023-07-13T04:28:04;4.65;;;1.55;;
80776;SDS011;70169;51.262;6.336;2023-07-13T04:30:20;4.03;;;1.70;;
80776;SDS011;70169;51.262;6.336;2023-07-13T04:32:36;2.85;;;1.40;;
80776;SDS011;70169;51.262;6.336;2023-07-13T04:34:51;4.80;;;1.60;;
80776;SDS011;70169;51.262;6.336;2023-07-13T04:37:08;4.75;;;1.30;;
80776;SDS011;70169;51.262;6.336;2023-07-13T04:39:23;5.00;;;1.60;;
80776;SDS011;70169;51.262;6.336;2023-07-13T04:41:38;5.90;;;1.90;;
80776;SDS011;70169;51.262;6.336;2023-07-13T04:43:54;4.47;;;1.80;;
80776;SDS011;70169;51.262;6.336;2023-07-13T04:46:10;3.65;;;1.52;;
80776;SDS011;70169;51.262;6.336;2023-07-13T04:48:28;5.10;;;1.42;;
80776;SDS011;70169;51.262;6.336;2023-07-13T04:50:43;6.33;;;1.60;;
80776;SDS011;70169;51.262;6.336;2023-07-13T04:52:58;5.72;;;1.50;;
80776;SDS011;70169;51.262;6.336;2023-07-13T04:55:14;5.37;;;1.60;;
80776;SDS011;70169;51.262;6.336;2023-07-13T04:57:29;6.00;;;2.00;;
80776;SDS011;70169;51.262;6.336;2023-07-13T04:59:45;4.80;;;2.10;;
80776;SDS011;70169;51.262;6.336;2023-07-13T05:02:00;5.22;;;1.70;;
80776;SDS011;70169;51.262;6.336;2023-07-13T05:04:16;5.10;;;2.15;;
80776;SDS011;70169;51.262;6.336;2023-07-13T05:06:32;4.53;;;1.90;;
80776;SDS011;70169;51.262;6.336;2023-07-13T05:08:48;4.57;;;1.80;;
80776;SDS011;70169;51.262;6.336;2023-07-13T05:11:04;4.43;;;1.90;;
80776;SDS011;70169;51.262;6.336;2023-07-13T05:13:20;4.22;;;1.90;;
80776;SDS011;70169;51.262;6.336;2023-07-13T05:15:36;5.80;;;2.10;;
80776;SDS011;70169;51.262;6.336;2023-07-13T05:17:51;4.80;;;2.23;;
80776;SDS011;70169;51.262;6.336;2023-07-13T05:20:07;5.30;;;1.90;;
80776;SDS011;70169;51.262;6.336;2023-07-13T05:22:24;6.38;;;2.40;;
80776;SDS011;70169;51.262;6.336;2023-07-13T05:24:39;5.20;;;2.00;;
80776;SDS011;70169;51.262;6.336;2023-07-13T05:26:54;4.83;;;2.17;;
80776;SDS011;70169;51.262;6.336;2023-07-13T05:29:10;5.43;;;1.93;;
80776;SDS011;70169;51.262;6.336;2023-07-13T05:31:25;6.50;;;2.15;;
80776;SDS011;70169;51.262;6.336;2023-07-13T05:33:41;3.40;;;1.70;;
80776;SDS011;70169;51.262;6.336;2023-07-13T05:35:56;6.27;;;2.43;;
80776;SDS011;70169;51.262;6.336;2023-07-13T05:38:11;9.23;;;2.70;;
80776;SDS011;70169;51.262;6.336;2023-07-13T05:40:27;11.17;;;2.70;;
80776;SDS011;70169;51.262;6.336;2023-07-13T05:42:42;9.10;;;2.53;;
80776;SDS011;70169;51.262;6.336;2023-07-13T05:44:57;8.93;;;2.47;;
80776;SDS011;70169;51.262;6.336;2023-07-13T05:47:13;12.83;;;2.83;;
80776;SDS011;70169;51.262;6.336;2023-07-13T05:49:29;9.93;;;2.55;;
80776;SDS011;70169;51.262;6.336;2023-07-13T05:51:45;5.70;;;2.22;;
80776;SDS011;70169;51.262;6.336;2023-07-13T05:54:00;6.37;;;2.57;;
80776;SDS011;70169;51.262;6.336;2023-07-13T05:56:16;5.90;;;2.40;;
80776;SDS011;70169;51.262;6.336;2023-07-13T05:58:31;7.40;;;3.03;;
80776;SDS011;70169;51.262;6.336;2023-07-13T06:00:46;6.13;;;3.13;;
80776;SDS011;70169;51.262;6.336;2023-07-13T06:03:03;7.97;;;3.00;;
80776;SDS011;70169;51.262;6.336;2023-07-13T06:05:18;7.40;;;2.67;;
80776;SDS011;70169;51.262;6.336;2023-07-13T06:07:33;7.78;;;3.03;;
80776;SDS011;70169;51.262;6.336;2023-07-13T06:09:49;6.30;;;2.80;;
80776;SDS011;70169;51.262;6.336;2023-07-13T06:12:04;8.60;;;2.97;;
80776;SDS011;70169;51.262;6.336;2023-07-13T06:14:20;7.20;;;2.97;;
80776;SDS011;70169;51.262;6.336;2023-07-13T06:16:35;9.02;;;3.03;;
80776;SDS011;70169;51.262;6.336;2023-07-13T06:18:51;7.57;;;3.20;;
80776;SDS011;70169;51.262;6.336;2023-07-13T06:21:07;7.65;;;3.15;;
80776;SDS011;70169;51.262;6.336;2023-07-13T06:23:24;9.20;;;3.80;;
80776;SDS011;70169;51.262;6.336;2023-07-13T06:25:40;9.13;;;3.65;;
80776;SDS011;70169;51.262;6.336;2023-07-13T06:27:55;8.13;;;3.30;;
80776;SDS011;70169;51.262;6.336;2023-07-13T06:30:11;8.83;;;3.20;;
80776;SDS011;70169;51.262;6.336;2023-07-13T06:32:27;6.28;;;3.50;;
80776;SDS011;70169;51.262;6.336;2023-07-13T06:34:42;7.13;;;3.00;;
80776;SDS011;70169;51.262;6.336;2023-07-13T06:36:57;6.73;;;2.50;;
80776;SDS011;70169;51.262;6.336;2023-07-13T06:39:13;6.00;;;2.30;;
80776;SDS011;70169;51.262;6.336;2023-07-13T06:41:28;7.82;;;2.97;;
80776;SDS011;70169;51.262;6.336;2023-07-13T06:43:45;8.10;;;3.15;;
80776;SDS011;70169;51.262;6.336;2023-07-13T06:46:00;11.63;;;3.60;;
80776;SDS011;70169;51.262;6.336;2023-07-13T06:48:17;7.82;;;3.42;;
80776;SDS011;70169;51.262;6.336;2023-07-13T06:50:33;11.18;;;3.83;;
80776;SDS011;70169;51.262;6.336;2023-07-13T06:52:48;12.90;;;3.67;;
80776;SDS011;70169;51.262;6.336;2023-07-13T06:55:04;10.73;;;3.73;;
80776;SDS011;70169;51.262;6.336;2023-07-13T06:57:19;11.75;;;3.65;;
80776;SDS011;70169;51.262;6.336;2023-07-13T06:59:35;5.37;;;2.60;;
80776;SDS011;70169;51.262;6.336;2023-07-13T07:01:50;4.87;;;2.73;;
80776;SDS011;70169;51.262;6.336;2023-07-13T07:04:05;6.67;;;3.23;;
80776;SDS011;70169;51.262;6.336;2023-07-13T07:06:21;4.97;;;2.70;;
80776;SDS011;70169;51.262;6.336;2023-07-13T07:08:38;5.75;;;2.70;;
80776;SDS011;70169;51.262;6.336;2023-07-13T07:10:54;7.30;;;2.83;;
80776;SDS011;70169;51.262;6.336;2023-07-13T07:13:09;7.57;;;3.60;;
80776;SDS011;70169;51.262;6.336;2023-07-13T07:15:25;9.05;;;3.00;;
80776;SDS011;70169;51.262;6.336;2023-07-13T07:19:57;7.57;;;3.10;;
80776;SDS011;70169;51.262;6.336;2023-07-13T07:22:12;7.63;;;2.77;;
80776;SDS011;70169;51.262;6.336;2023-07-13T07:24:27;9.00;;;3.10;;
80776;SDS011;70169;51.262;6.336;2023-07-13T07:26:43;9.63;;;3.23;;
80776;SDS011;70169;51.262;6.336;2023-07-13T07:28:58;9.83;;;3.47;;
80776;SDS011;70169;51.262;6.336;2023-07-13T07:31:14;7.25;;;2.90;;
80776;SDS011;70169;51.262;6.336;2023-07-13T07:33:30;7.83;;;2.47;;
80776;SDS011;70169;51.262;6.336;2023-07-13T07:35:45;5.87;;;2.73;;
80776;SDS011;70169;51.262;6.336;2023-07-13T07:38:00;6.23;;;2.93;;
80776;SDS011;70169;51.262;6.336;2023-07-13T07:40:16;7.93;;;3.00;;
80776;SDS011;70169;51.262;6.336;2023-07-13T07:42:31;10.85;;;3.28;;
80776;SDS011;70169;51.262;6.336;2023-07-13T07:44:46;6.80;;;3.43;;
80776;SDS011;70169;51.262;6.336;2023-07-13T07:47:02;8.43;;;3.23;;
80776;SDS011;70169;51.262;6.336;2023-07-13T07:49:17;7.22;;;2.80;;
80776;SDS011;70169;51.262;6.336;2023-07-13T07:51:33;5.38;;;2.63;;
80776;SDS011;70169;51.262;6.336;2023-07-13T07:53:48;9.27;;;2.93;;
80776;SDS011;70169;51.262;6.336;2023-07-13T07:56:04;9.90;;;3.80;;
80776;SDS011;70169;51.262;6.336;2023-07-13T07:58:19;7.63;;;3.20;;
80776;SDS011;70169;51.262;6.336;2023-07-13T08:00:34;6.97;;;3.40;;
80776;SDS011;70169;51.262;6.336;2023-07-13T08:02:50;9.35;;;3.67;;
80776;SDS011;70169;51.262;6.336;2023-07-13T08:05:05;8.07;;;3.67;;
80776;SDS011;70169;51.262;6.336;2023-07-13T08:07:21;12.73;;;3.80;;
80776;SDS011;70169;51.262;6.336;2023-07-13T08:09:37;8.95;;;3.35;;
80776;SDS011;70169;51.262;6.336;2023-07-13T08:15:03;11.45;;;3.45;;
80776;SDS011;70169;51.262;6.336;2023-07-13T08:17:20;7.80;;;2.75;;
80776;SDS011;70169;51.262;6.336;2023-07-13T08:19:35;10.88;;;3.42;;
80776;SDS011;70169;51.262;6.336;2023-07-13T08:21:51;9.47;;;3.43;;
80776;SDS011;70169;51.262;6.336;2023-07-13T08:24:07;6.50;;;3.17;;
80776;SDS011;70169;51.262;6.336;2023-07-13T08:26:22;8.20;;;3.45;;
80776;SDS011;70169;51.262;6.336;2023-07-13T08:28:37;6.90;;;3.13;;
80776;SDS011;70169;51.262;6.336;2023-07-13T08:30:53;9.70;;;3.60;;
80776;SDS011;70169;51.262;6.336;2023-07-13T08:33:08;8.63;;;3.20;;
80776;SDS011;70169;51.262;6.336;2023-07-13T08:35:24;11.37;;;3.00;;
80776;SDS011;70169;51.262;6.336;2023-07-13T08:39:55;7.63;;;2.63;;
80776;SDS011;70169;51.262;6.336;2023-07-13T08:47:22;6.72;;;2.85;;
80776;SDS011;70169;51.262;6.336;2023-07-13T08:49:39;7.63;;;2.72;;
80776;SDS011;70169;51.262;6.336;2023-07-13T08:52:00;6.60;;;3.08;;
80776;SDS011;70169;51.262;6.336;2023-07-13T08:56:43;9.57;;;3.05;;
80776;SDS011;70169;51.262;6.336;2023-07-13T08:59:11;9.05;;;3.28;;
80776;SDS011;70169;51.262;6.336;2023-07-13T09:03:57;6.55;;;2.80;;
80776;SDS011;70169;51.262;6.336;2023-07-13T09:06:20;9.18;;;3.33;;
80776;SDS011;70169;51.262;6.336;2023-07-13T09:11:20;7.07;;;2.92;;
80776;SDS011;70169;51.262;6.336;2023-07-13T09:13:50;9.85;;;3.00;;
80776;SDS011;70169;51.262;6.336;2023-07-13T09:16:21;7.93;;;2.80;;
80776;SDS011;70169;51.262;6.336;2023-07-13T09:18:37;6.88;;;3.10;;
80776;SDS011;70169;51.262;6.336;2023-07-13T09:21:02;8.18;;;3.40;;
80776;SDS011;70169;51.262;6.336;2023-07-13T09:23:23;11.80;;;3.25;;
80776;SDS011;70169;51.262;6.336;2023-07-13T09:25:39;9.05;;;3.25;;
80776;SDS011;70169;51.262;6.336;2023-07-13T09:27:59;5.85;;;2.83;;
80776;SDS011;70169;51.262;6.336;2023-07-13T09:32:41;10.93;;;3.55;;
80776;SDS011;70169;51.262;6.336;2023-07-13T09:34:59;9.35;;;3.90;;
80776;SDS011;70169;51.262;6.336;2023-07-13T09:37:19;5.70;;;3.08;;
80776;SDS011;70169;51.262;6.336;2023-07-13T09:39:38;7.78;;;3.28;;
80776;SDS011;70169;51.262;6.336;2023-07-13T09:49:09;11.38;;;4.95;;
80776;SDS011;70169;51.262;6.336;2023-07-13T09:51:25;7.95;;;3.40;;
80776;SDS011;70169;51.262;6.336;2023-07-13T09:53:41;8.07;;;2.80;;
80776;SDS011;70169;51.262;6.336;2023-07-13T09:55:58;5.78;;;2.58;;
80776;SDS011;70169;51.262;6.336;2023-07-13T10:00:30;6.25;;;2.85;;
80776;SDS011;70169;51.262;6.336;2023-07-13T10:02:46;9.05;;;2.67;;
80776;SDS011;70169;51.262;6.336;2023-07-13T10:07:19;6.38;;;3.25;;
80776;SDS011;70169;51.262;6.336;2023-07-13T10:09:37;5.63;;;3.03;;
80776;SDS011;70169;51.262;6.336;2023-07-13T10:11:53;6.82;;;2.60;;
80776;SDS011;70169;51.262;6.336;2023-07-13T10:14:15;6.90;;;2.57;;
80776;SDS011;70169;51.262;6.336;2023-07-13T10:16:32;7.28;;;2.55;;
80776;SDS011;70169;51.262;6.336;2023-07-13T10:18:55;5.50;;;2.42;;
80776;SDS011;70169;51.262;6.336;2023-07-13T10:21:22;8.73;;;3.65;;
80776;SDS011;70169;51.262;6.336;2023-07-13T10:23:41;11.25;;;3.22;;
80776;SDS011;70169;51.262;6.336;2023-07-13T10:28:29;6.43;;;2.85;;
80776;SDS011;70169;51.262;6.336;2023-07-13T10:30:46;7.47;;;3.22;;
80776;SDS011;70169;51.262;6.336;2023-07-13T10:33:03;7.88;;;3.30;;
80776;SDS011;70169;51.262;6.336;2023-07-13T10:35:26;5.53;;;3.55;;
80776;SDS011;70169;51.262;6.336;2023-07-13T10:37:55;6.30;;;2.95;;
80776;SDS011;70169;51.262;6.336;2023-07-13T10:40:18;6.00;;;3.10;;
80776;SDS011;70169;51.262;6.336;2023-07-13T10:42:56;6.32;;;3.15;;
80776;SDS011;70169;51.262;6.336;2023-07-13T10:45:19;7.22;;;3.10;;
80776;SDS011;70169;51.262;6.336;2023-07-13T10:47:38;7.47;;;2.92;;
80776;SDS011;70169;51.262;6.336;2023-07-13T10:49:55;6.63;;;2.55;;
80776;SDS011;70169;51.262;6.336;2023-07-13T10:54:56;5.60;;;2.30;;
80776;SDS011;70169;51.262;6.336;2023-07-13T10:59:36;4.05;;;2.30;;
80776;SDS011;70169;51.262;6.336;2023-07-13T11:04:24;8.73;;;2.80;;
80776;SDS011;70169;51.262;6.336;2023-07-13T11:06:42;6.55;;;2.53;;
80776;SDS011;70169;51.262;6.336;2023-07-13T11:11:49;8.90;;;2.72;;
80776;SDS011;70169;51.262;6.336;2023-07-13T11:14:07;5.80;;;2.40;;
80776;SDS011;70169;51.262;6.336;2023-07-13T11:16:56;4.57;;;2.22;;
80776;SDS011;70169;51.262;6.336;2023-07-13T11:21:30;4.35;;;2.05;;
80776;SDS011;70169;51.262;6.336;2023-07-13T11:23:52;6.78;;;1.90;;
80776;SDS011;70169;51.262;6.336;2023-07-13T11:28:56;6.30;;;2.35;;
80776;SDS011;70169;51.262;6.336;2023-07-13T11:31:13;5.77;;;2.20;;
80776;SDS011;70169;51.262;6.336;2023-07-13T11:36:14;4.18;;;1.80;;
80776;SDS011;70169;51.262;6.336;2023-07-13T11:38:36;6.38;;;2.10;;
80776;SDS011;70169;51.262;6.336;2023-07-13T11:40:54;6.47;;;2.08;;
80776;SDS011;70169;51.262;6.336;2023-07-13T11:43:12;5.22;;;2.22;;
80776;SDS011;70169;51.262;6.336;2023-07-13T11:45:30;6.07;;;2.15;;
80776;SDS011;70169;51.262;6.336;2023-07-13T11:47:45;6.28;;;2.25;;
80776;SDS011;70169;51.262;6.336;2023-07-13T11:50:01;6.07;;;2.05;;
80776;SDS011;70169;51.262;6.336;2023-07-13T11:52:20;5.40;;;2.17;;
80776;SDS011;70169;51.262;6.336;2023-07-13T11:54:51;4.10;;;1.90;;
80776;SDS011;70169;51.262;6.336;2023-07-13T11:57:23;5.65;;;2.15;;
80776;SDS011;70169;51.262;6.336;2023-07-13T11:59:39;6.13;;;1.98;;
80776;SDS011;70169;51.262;6.336;2023-07-13T12:01:55;5.97;;;2.10;;
80776;SDS011;70169;51.262;6.336;2023-07-13T12:04:31;4.28;;;1.80;;
80776;SDS011;70169;51.262;6.336;2023-07-13T12:06:52;4.70;;;2.30;;
80776;SDS011;70169;51.262;6.336;2023-07-13T12:09:11;4.97;;;2.40;;
80776;SDS011;70169;51.262;6.336;2023-07-13T12:11:27;4.65;;;2.17;;
80776;SDS011;70169;51.262;6.336;2023-07-13T12:13:43;4.40;;;1.70;;
80776;SDS011;70169;51.262;6.336;2023-07-13T12:16:00;8.07;;;2.35;;
80776;SDS011;70169;51.262;6.336;2023-07-13T12:18:17;3.90;;;2.03;;
80776;SDS011;70169;51.262;6.336;2023-07-13T12:20:37;3.85;;;2.35;;
80776;SDS011;70169;51.262;6.336;2023-07-13T12:22:54;3.55;;;1.95;;
80776;SDS011;70169;51.262;6.336;2023-07-13T12:25:11;5.30;;;1.75;;
80776;SDS011;70169;51.262;6.336;2023-07-13T12:27:27;4.13;;;1.95;;
80776;SDS011;70169;51.262;6.336;2023-07-13T12:29:49;6.60;;;2.47;;
80776;SDS011;70169;51.262;6.336;2023-07-13T12:32:08;3.45;;;1.73;;
80776;SDS011;70169;51.262;6.336;2023-07-13T12:34:24;4.60;;;2.17;;
80776;SDS011;70169;51.262;6.336;2023-07-13T12:37:02;5.05;;;1.90;;
80776;SDS011;70169;51.262;6.336;2023-07-13T12:39:28;3.63;;;1.90;;
80776;SDS011;70169;51.262;6.336;2023-07-13T12:44:46;6.65;;;1.85;;
80776;SDS011;70169;51.262;6.336;2023-07-13T12:47:06;6.57;;;2.15;;
80776;SDS011;70169;51.262;6.336;2023-07-13T12:49:28;4.50;;;1.83;;
80776;SDS011;70169;51.262;6.336;2023-07-13T12:51:49;4.40;;;2.17;;
80776;SDS011;70169;51.262;6.336;2023-07-13T12:54:26;3.55;;;1.73;;
80776;SDS011;70169;51.262;6.336;2023-07-13T12:56:41;5.20;;;1.95;;
80776;SDS011;70169;51.262;6.336;2023-07-13T12:58:58;5.93;;;2.03;;
80776;SDS011;70169;51.262;6.336;2023-07-13T13:01:17;5.15;;;1.80;;
80776;SDS011;70169;51.262;6.336;2023-07-13T13:03:33;4.03;;;2.25;;
80776;SDS011;70169;51.262;6.336;2023-07-13T13:06:01;3.78;;;1.67;;
80776;SDS011;70169;51.262;6.336;2023-07-13T13:08:21;3.95;;;1.70;;
80776;SDS011;70169;51.262;6.336;2023-07-13T13:10:36;6.03;;;2.00;;
80776;SDS011;70169;51.262;6.336;2023-07-13T13:12:51;3.42;;;1.70;;
80776;SDS011;70169;51.262;6.336;2023-07-13T13:15:08;4.28;;;1.80;;
80776;SDS011;70169;51.262;6.336;2023-07-13T13:17:26;3.75;;;2.03;;
80776;SDS011;70169;51.262;6.336;2023-07-13T13:19:45;5.88;;;1.90;;
80776;SDS011;70169;51.262;6.336;2023-07-13T13:22:01;3.33;;;1.70;;
80776;SDS011;70169;51.262;6.336;2023-07-13T13:26:35;3.92;;;1.90;;
80776;SDS011;70169;51.262;6.336;2023-07-13T13:28:50;5.05;;;2.10;;
80776;SDS011;70169;51.262;6.336;2023-07-13T13:31:07;3.37;;;2.00;;
80776;SDS011;70169;51.262;6.336;2023-07-13T13:33:27;6.05;;;1.80;;
80776;SDS011;70169;51.262;6.336;2023-07-13T13:35:42;5.88;;;2.55;;
80776;SDS011;70169;51.262;6.336;2023-07-13T13:37:58;5.25;;;2.10;;
80776;SDS011;70169;51.262;6.336;2023-07-13T13:40:18;4.03;;;1.90;;
80776;SDS011;70169;51.262;6.336;2023-07-13T13:42:39;5.93;;;1.98;;
80776;SDS011;70169;51.262;6.336;2023-07-13T13:44:54;3.90;;;2.00;;
80776;SDS011;70169;51.262;6.336;2023-07-13T13:47:27;3.67;;;2.00;;
80776;SDS011;70169;51.262;6.336;2023-07-13T13:49:51;3.88;;;1.85;;
80776;SDS011;70169;51.262;6.336;2023-07-13T13:52:08;6.10;;;1.92;;
80776;SDS011;70169;51.262;6.336;2023-07-13T13:54:25;4.80;;;1.95;;
80776;SDS011;70169;51.262;6.336;2023-07-13T13:56:42;4.32;;;1.80;;
80776;SDS011;70169;51.262;6.336;2023-07-13T13:59:01;3.15;;;1.63;;
80776;SDS011;70169;51.262;6.336;2023-07-13T14:01:20;5.13;;;2.20;;
80776;SDS011;70169;51.262;6.336;2023-07-13T14:03:38;4.05;;;2.35;;
80776;SDS011;70169;51.262;6.336;2023-07-13T14:05:53;4.97;;;1.97;;
80776;SDS011;70169;51.262;6.336;2023-07-13T14:08:15;3.55;;;1.83;;
80776;SDS011;70169;51.262;6.336;2023-07-13T14:10:32;4.40;;;2.03;;
80776;SDS011;70169;51.262;6.336;2023-07-13T14:12:48;5.73;;;1.97;;
80776;SDS011;70169;51.262;6.336;2023-07-13T14:15:20;4.20;;;1.73;;
80776;SDS011;70169;51.262;6.336;2023-07-13T14:19:55;4.27;;;1.83;;
80776;SDS011;70169;51.262;6.336;2023-07-13T14:22:12;5.80;;;2.67;;
80776;SDS011;70169;51.262;6.336;2023-07-13T14:24:27;6.33;;;2.20;;
80776;SDS011;70169;51.262;6.336;2023-07-13T14:26:42;3.77;;;1.80;;
80776;SDS011;70169;51.262;6.336;2023-07-13T14:28:58;4.00;;;1.80;;
80776;SDS011;70169;51.262;6.336;2023-07-13T14:31:14;3.80;;;1.80;;
80776;SDS011;70169;51.262;6.336;2023-07-13T14:33:31;5.72;;;1.92;;
80776;SDS011;70169;51.262;6.336;2023-07-13T14:35:46;4.07;;;1.80;;
80776;SDS011;70169;51.262;6.336;2023-07-13T14:38:02;3.47;;;2.00;;
80776;SDS011;70169;51.262;6.336;2023-07-13T14:40:19;7.75;;;2.15;;
80776;SDS011;70169;51.262;6.336;2023-07-13T14:42:41;3.75;;;1.90;;
80776;SDS011;70169;51.262;6.336;2023-07-13T14:44:56;4.97;;;2.03;;
80776;SDS011;70169;51.262;6.336;2023-07-13T14:47:11;6.10;;;2.23;;
80776;SDS011;70169;51.262;6.336;2023-07-13T14:51:49;4.68;;;2.00;;
80776;SDS011;70169;51.262;6.336;2023-07-13T14:54:05;4.38;;;2.15;;
80776;SDS011;70169;51.262;6.336;2023-07-13T14:56:24;2.83;;;1.83;;
80776;SDS011;70169;51.262;6.336;2023-07-13T14:58:40;4.90;;;2.17;;